createdAt,value
2018-10-09T00:01:52.434Z,5.93
2018-10-09T00:04:20.525Z,5.13
2018-10-09T00:06:48.678Z,5.37
2018-10-09T00:09:16.743Z,5.23
2018-10-09T00:11:44.819Z,6.23
2018-10-09T00:14:12.917Z,6.43
2018-10-09T00:16:40.963Z,4.37
2018-10-09T00:19:09.065Z,5.67
2018-10-09T00:21:37.164Z,3.80
2018-10-09T00:24:05.254Z,6.63
2018-10-09T00:26:33.321Z,3.83
2018-10-09T00:29:01.394Z,5.77
2018-10-09T00:31:29.486Z,6.80
2018-10-09T00:33:57.693Z,8.50
2018-10-09T00:36:25.761Z,6.83
2018-10-09T00:38:53.826Z,6.83
2018-10-09T00:41:21.898Z,9.58
2018-10-09T00:43:49.970Z,6.03
2018-10-09T00:46:18.093Z,6.27
2018-10-09T00:48:46.163Z,6.97
2018-10-09T00:51:14.324Z,7.37
2018-10-09T00:53:42.409Z,7.77
2018-10-09T00:56:10.785Z,5.40
2018-10-09T00:58:38.873Z,10.03
2018-10-09T01:01:07.086Z,5.67
2018-10-09T01:03:35.173Z,7.20
2018-10-09T01:06:03.305Z,8.37
2018-10-09T01:08:31.368Z,6.23
2018-10-09T01:10:59.636Z,12.83
2018-10-09T01:13:27.706Z,7.83
2018-10-09T01:15:56.123Z,8.03
2018-10-09T01:18:24.254Z,8.60
2018-10-09T01:20:52.455Z,5.70
2018-10-09T01:23:20.636Z,7.93
2018-10-09T01:25:48.716Z,7.57
2018-10-09T01:28:16.884Z,6.50
2018-10-09T01:30:44.976Z,8.47
2018-10-09T01:33:13.054Z,7.03
2018-10-09T01:35:41.110Z,8.10
2018-10-09T01:38:09.181Z,6.53
2018-10-09T01:40:37.264Z,9.87
2018-10-09T01:43:05.382Z,11.20
2018-10-09T01:45:33.466Z,10.07
2018-10-09T01:48:01.526Z,10.27
2018-10-09T01:50:29.565Z,9.20
2018-10-09T01:52:57.629Z,8.60
2018-10-09T01:55:25.709Z,8.33
2018-10-09T01:57:53.802Z,9.50
2018-10-09T02:00:21.868Z,8.03
2018-10-09T02:02:49.977Z,7.53
2018-10-09T02:05:18.349Z,11.17
2018-10-09T02:07:46.375Z,7.80
2018-10-09T02:10:14.461Z,9.67
2018-10-09T02:12:42.558Z,8.93
2018-10-09T02:15:10.626Z,10.08
2018-10-09T02:17:38.742Z,8.93
2018-10-09T02:20:06.807Z,11.48
2018-10-09T02:22:34.866Z,7.87
2018-10-09T02:25:02.952Z,10.07
2018-10-09T02:27:31.022Z,8.00
2018-10-09T02:29:59.093Z,8.63
2018-10-09T02:32:27.173Z,7.53
2018-10-09T02:34:55.250Z,8.53
2018-10-09T02:37:24.070Z,7.17
2018-10-09T02:39:52.166Z,9.80
2018-10-09T02:42:20.257Z,6.43
2018-10-09T02:44:48.445Z,7.20
2018-10-09T02:47:16.529Z,9.63
2018-10-09T02:49:44.697Z,9.10
2018-10-09T02:52:12.778Z,13.20
2018-10-09T02:54:40.860Z,7.17
2018-10-09T02:57:08.922Z,9.10
2018-10-09T02:59:37.005Z,8.13
2018-10-09T03:02:05.073Z,9.73
2018-10-09T03:04:33.126Z,7.27
2018-10-09T03:07:01.474Z,5.93
2018-10-09T03:09:29.541Z,7.83
2018-10-09T03:11:57.649Z,7.10
2018-10-09T03:14:25.760Z,7.57
2018-10-09T03:16:53.814Z,6.10
2018-10-09T03:19:21.879Z,13.47
2018-10-09T03:21:49.933Z,6.37
2018-10-09T03:24:18.023Z,7.20
2018-10-09T03:26:46.092Z,7.13
2018-10-09T03:29:14.161Z,8.87
2018-10-09T03:31:42.258Z,7.27
2018-10-09T03:34:10.374Z,13.23
2018-10-09T03:36:38.478Z,6.73
2018-10-09T03:39:07.254Z,7.77
2018-10-09T03:41:35.332Z,8.57
2018-10-09T03:44:03.423Z,9.87
2018-10-09T03:46:31.485Z,12.00
2018-10-09T03:48:59.558Z,12.83
2018-10-09T03:51:27.625Z,7.60
2018-10-09T03:53:55.701Z,9.43
2018-10-09T03:56:23.804Z,10.17
2018-10-09T03:58:51.860Z,8.87
2018-10-09T04:01:19.927Z,7.80
2018-10-09T04:03:48.000Z,7.53
2018-10-09T04:06:16.113Z,8.90
2018-10-09T04:08:44.193Z,9.60
2018-10-09T04:11:12.253Z,8.57
2018-10-09T04:13:40.307Z,7.90
2018-10-09T04:16:09.871Z,11.10
2018-10-09T04:18:37.938Z,5.87
2018-10-09T04:21:06.354Z,10.30
2018-10-09T04:23:34.406Z,9.57
2018-10-09T04:26:02.461Z,8.07
2018-10-09T04:28:30.595Z,7.43
2018-10-09T04:30:58.641Z,9.37
2018-10-09T04:33:26.708Z,8.63
2018-10-09T04:35:54.778Z,6.50
2018-10-09T04:38:22.923Z,8.57
2018-10-09T04:40:50.970Z,9.00
2018-10-09T04:43:19.070Z,8.43
2018-10-09T04:45:47.142Z,8.67
2018-10-09T04:48:15.222Z,14.03
2018-10-09T04:50:43.286Z,7.63
2018-10-09T04:53:11.416Z,12.47
2018-10-09T04:55:39.432Z,11.50
2018-10-09T04:58:07.522Z,9.87
2018-10-09T05:00:35.599Z,9.43
2018-10-09T05:03:03.652Z,10.77
2018-10-09T05:05:31.720Z,12.10
2018-10-09T05:07:59.802Z,11.47
2018-10-09T05:10:27.901Z,9.63
2018-10-09T05:12:56.001Z,10.47
2018-10-09T05:15:24.075Z,10.10
2018-10-09T05:17:52.206Z,10.07
2018-10-09T05:20:20.231Z,9.37
2018-10-09T05:22:48.306Z,12.30
2018-10-09T05:25:16.372Z,10.87
2018-10-09T05:27:44.463Z,10.63
2018-10-09T05:30:12.554Z,14.10
2018-10-09T05:32:40.626Z,9.83
2018-10-09T05:35:08.784Z,9.90
2018-10-09T05:37:36.811Z,12.50
2018-10-09T05:40:04.949Z,10.70
2018-10-09T05:42:33.015Z,9.90
2018-10-09T05:45:01.089Z,11.93
2018-10-09T05:47:29.154Z,12.87
2018-10-09T05:49:57.213Z,9.23
2018-10-09T05:52:25.584Z,10.27
2018-10-09T05:54:53.649Z,10.97
2018-10-09T05:57:21.725Z,13.43
2018-10-09T05:59:49.805Z,11.63
2018-10-09T06:02:17.866Z,12.20
2018-10-09T06:04:45.930Z,12.23
2018-10-09T06:07:14.019Z,10.57
2018-10-09T06:09:42.146Z,17.37
2018-10-09T06:12:10.242Z,13.20
2018-10-09T06:14:38.313Z,11.60
2018-10-09T06:17:06.389Z,14.13
2018-10-09T06:19:34.466Z,14.53
2018-10-09T06:22:02.598Z,8.97
2018-10-09T06:24:30.610Z,16.40
2018-10-09T06:26:58.681Z,14.50
2018-10-09T06:29:26.772Z,12.10
2018-10-09T06:31:54.832Z,10.07
2018-10-09T06:34:22.894Z,12.57
2018-10-09T06:36:50.982Z,14.27
2018-10-09T06:39:19.060Z,14.63
2018-10-09T06:41:47.170Z,13.00
2018-10-09T06:44:15.248Z,13.53
2018-10-09T06:46:43.303Z,16.73
2018-10-09T06:49:11.523Z,11.87
2018-10-09T06:51:39.658Z,14.67
2018-10-09T06:54:08.478Z,10.70
2018-10-09T06:56:36.509Z,14.43
2018-10-09T06:59:04.717Z,14.97
2018-10-09T07:01:32.775Z,11.13
2018-10-09T07:04:00.891Z,10.07
2018-10-09T07:06:28.993Z,13.37
2018-10-09T07:08:57.074Z,10.83
2018-10-09T07:11:25.208Z,12.30
2018-10-09T07:13:55.054Z,11.27
2018-10-09T07:16:23.278Z,9.70
2018-10-09T07:18:51.349Z,10.73
2018-10-09T07:21:19.423Z,13.00
2018-10-09T07:23:48.423Z,15.70
2018-10-09T07:26:16.634Z,11.47
2018-10-09T07:28:44.714Z,15.67
2018-10-09T07:31:12.825Z,11.57
2018-10-09T07:33:40.906Z,14.33
2018-10-09T07:36:09.015Z,14.37
2018-10-09T07:38:37.105Z,13.13
2018-10-09T07:41:05.442Z,10.67
2018-10-09T07:43:33.610Z,12.73
2018-10-09T07:46:01.819Z,18.13
2018-10-09T07:48:29.909Z,13.90
2018-10-09T07:50:58.105Z,14.17
2018-10-09T07:53:27.231Z,15.17
2018-10-09T07:55:55.320Z,13.53
2018-10-09T07:58:23.461Z,11.77
2018-10-09T08:00:51.582Z,10.97
2018-10-09T08:03:19.750Z,19.60
2018-10-09T08:05:47.853Z,16.40
2018-10-09T08:08:16.221Z,21.07
2018-10-09T08:10:44.448Z,21.07
2018-10-09T08:13:12.533Z,14.73
2018-10-09T08:15:40.602Z,12.93
2018-10-09T08:18:08.663Z,19.23
2018-10-09T08:20:36.803Z,14.57
2018-10-09T08:23:04.889Z,17.00
2018-10-09T08:25:33.045Z,16.80
2018-10-09T08:28:01.163Z,14.90
2018-10-09T08:30:29.186Z,16.83
2018-10-09T08:32:57.384Z,14.63
2018-10-09T08:35:26.039Z,16.40
2018-10-09T08:38:00.838Z,13.50
2018-10-09T08:40:28.974Z,12.10
2018-10-09T08:42:56.978Z,17.27
2018-10-09T08:45:25.077Z,16.87
2018-10-09T08:47:53.164Z,15.93
2018-10-09T08:50:21.342Z,16.97
2018-10-09T08:52:49.415Z,15.47
2018-10-09T08:55:17.487Z,13.50
2018-10-09T08:57:45.585Z,20.27
2018-10-09T09:00:13.678Z,20.00
2018-10-09T09:02:41.807Z,12.37
2018-10-09T09:05:10.484Z,15.50
2018-10-09T09:07:38.867Z,13.60
2018-10-09T09:10:07.065Z,12.57
2018-10-09T09:12:35.164Z,13.87
2018-10-09T09:15:03.270Z,14.73
2018-10-09T09:17:31.380Z,11.40
2018-10-09T09:19:59.470Z,12.63
2018-10-09T09:22:27.555Z,13.40
2018-10-09T09:24:55.736Z,11.77
2018-10-09T09:27:23.836Z,10.77
2018-10-09T09:29:51.911Z,13.93
2018-10-09T09:32:20.036Z,7.70
2018-10-09T09:34:48.147Z,11.43
2018-10-09T09:37:16.228Z,10.67
2018-10-09T09:39:44.372Z,8.33
2018-10-09T09:42:12.429Z,13.97
2018-10-09T09:44:40.507Z,7.07
2018-10-09T09:47:09.176Z,13.77
2018-10-09T09:49:37.243Z,10.63
2018-10-09T09:52:05.369Z,8.27
2018-10-09T09:54:33.379Z,7.97
2018-10-09T09:57:01.535Z,14.43
2018-10-09T09:59:29.675Z,11.57
2018-10-09T10:01:57.758Z,14.10
2018-10-09T10:04:25.833Z,10.07
2018-10-09T10:06:53.909Z,13.20
2018-10-09T10:09:22.039Z,13.43
2018-10-09T10:11:50.135Z,10.17
2018-10-09T10:14:18.135Z,8.90
2018-10-09T10:16:46.215Z,10.23
2018-10-09T10:19:14.354Z,10.30
2018-10-09T10:21:42.440Z,8.37
2018-10-09T10:24:10.524Z,6.90
2018-10-09T10:26:38.594Z,9.13
2018-10-09T10:29:06.800Z,10.40
2018-10-09T10:31:34.845Z,9.10
2018-10-09T10:34:03.034Z,8.70
2018-10-09T10:36:31.188Z,11.37
2018-10-09T10:38:59.242Z,10.27
2018-10-09T10:41:27.616Z,10.90
2018-10-09T10:43:55.666Z,12.10
2018-10-09T10:46:28.957Z,8.13
2018-10-09T10:49:00.255Z,7.60
2018-10-09T10:51:28.291Z,8.80
2018-10-09T10:53:56.640Z,9.23
2018-10-09T10:56:24.719Z,13.03
2018-10-09T10:58:52.818Z,10.47
2018-10-09T11:01:20.960Z,8.33
2018-10-09T11:03:48.960Z,8.27
2018-10-09T11:06:17.255Z,6.77
2018-10-09T11:08:45.651Z,10.60
2018-10-09T11:11:13.750Z,10.87
2018-10-09T11:13:41.867Z,12.57
2018-10-09T11:16:10.136Z,8.83
2018-10-09T11:18:38.375Z,11.00
2018-10-09T11:21:06.636Z,10.10
2018-10-09T11:23:34.683Z,12.77
2018-10-09T11:26:02.859Z,12.70
2018-10-09T11:28:31.498Z,10.60
2018-10-09T11:30:59.563Z,8.30
2018-10-09T11:33:27.777Z,9.77
2018-10-09T11:35:55.867Z,10.97
2018-10-09T11:38:24.011Z,9.80
2018-10-09T11:40:52.083Z,11.00
2018-10-09T11:43:20.160Z,9.30
2018-10-09T11:45:48.251Z,10.43
2018-10-09T11:48:16.330Z,7.57
2018-10-09T11:50:44.406Z,9.83
2018-10-09T11:53:12.527Z,10.10
2018-10-09T11:55:40.605Z,10.80
2018-10-09T11:58:08.739Z,13.03
2018-10-09T12:00:38.782Z,10.70
2018-10-09T12:03:07.081Z,8.73
2018-10-09T12:05:35.257Z,9.83
2018-10-09T12:08:03.332Z,8.35
2018-10-09T12:10:31.556Z,8.98
2018-10-09T12:12:59.686Z,8.20
2018-10-09T12:15:27.777Z,8.93
2018-10-09T12:17:55.929Z,10.58
2018-10-09T12:20:24.003Z,7.37
2018-10-09T12:22:52.143Z,9.53
2018-10-09T12:25:20.312Z,7.70
2018-10-09T12:27:48.407Z,5.58
2018-10-09T12:30:17.414Z,11.28
2018-10-09T12:32:45.504Z,7.23
2018-10-09T12:35:13.651Z,5.90
2018-10-09T12:37:41.735Z,7.12
2018-10-09T12:40:10.416Z,5.17
2018-10-09T12:42:38.563Z,5.05
2018-10-09T12:45:06.659Z,4.62
2018-10-09T12:47:34.902Z,5.90
2018-10-09T12:50:02.996Z,8.75
2018-10-09T12:52:31.079Z,5.37
2018-10-09T12:54:59.165Z,4.45
2018-10-09T12:57:27.270Z,10.75
2018-10-09T12:59:55.382Z,6.87
2018-10-09T13:02:23.456Z,5.37
2018-10-09T13:04:51.574Z,6.03
2018-10-09T13:07:19.647Z,4.92
2018-10-09T13:09:47.750Z,7.20
2018-10-09T13:12:15.834Z,4.22
2018-10-09T13:14:43.934Z,5.90
2018-10-09T13:17:12.158Z,4.53
2018-10-09T13:19:40.219Z,5.85
2018-10-09T13:22:08.747Z,5.53
2018-10-09T13:24:36.466Z,5.92
2018-10-09T13:27:04.724Z,5.85
2018-10-09T13:29:32.835Z,4.45
2018-10-09T13:32:00.971Z,4.10
2018-10-09T13:34:29.138Z,6.08
2018-10-09T13:36:57.222Z,8.38
2018-10-09T13:39:25.294Z,4.95
2018-10-09T13:41:53.432Z,4.78
2018-10-09T13:44:21.599Z,7.95
2018-10-09T13:46:49.778Z,5.17
2018-10-09T13:49:18.047Z,6.55
2018-10-09T13:51:46.125Z,8.28
2018-10-09T13:54:14.221Z,5.30
2018-10-09T13:56:42.306Z,8.68
2018-10-09T13:59:11.086Z,6.80
2018-10-09T14:01:39.152Z,8.83
2018-10-09T14:04:07.469Z,7.87
2018-10-09T14:06:35.570Z,9.13
2018-10-09T14:09:05.774Z,4.53
2018-10-09T14:11:33.875Z,8.08
2018-10-09T14:14:02.080Z,7.00
2018-10-09T14:16:30.352Z,8.80
2018-10-09T14:18:58.432Z,6.30
2018-10-09T14:21:26.836Z,5.80
2018-10-09T14:23:55.277Z,6.62
2018-10-09T14:26:28.648Z,6.80
2018-10-09T14:28:56.719Z,5.80
2018-10-09T14:31:24.791Z,6.92
2018-10-09T14:33:52.867Z,7.28
2018-10-09T14:36:20.971Z,5.97
2018-10-09T14:38:49.065Z,6.72
2018-10-09T14:41:17.139Z,4.65
2018-10-09T14:43:45.218Z,5.20
2018-10-09T14:46:13.328Z,5.87
2018-10-09T14:48:41.403Z,8.35
2018-10-09T14:51:09.660Z,4.37
2018-10-09T14:53:37.967Z,10.05
2018-10-09T14:56:06.055Z,8.25
2018-10-09T14:58:34.243Z,12.03
2018-10-09T15:01:02.475Z,6.90
2018-10-09T15:03:30.572Z,5.65
2018-10-09T15:05:58.655Z,5.50
2018-10-09T15:08:26.731Z,4.00
2018-10-09T15:10:54.798Z,5.70
2018-10-09T15:13:22.872Z,6.50
2018-10-09T15:15:50.998Z,12.33
2018-10-09T15:18:19.095Z,7.37
2018-10-09T15:20:47.208Z,7.30
2018-10-09T15:23:16.046Z,12.93
2018-10-09T15:25:44.162Z,6.67
2018-10-09T15:28:12.287Z,5.75
2018-10-09T15:30:40.348Z,4.65
2018-10-09T15:33:08.558Z,8.13
2018-10-09T15:35:36.675Z,6.42
2018-10-09T15:38:04.855Z,7.10
2018-10-09T15:40:32.965Z,10.50
2018-10-09T15:43:01.217Z,8.33
2018-10-09T15:45:29.635Z,7.37
2018-10-09T15:47:57.695Z,8.30
2018-10-09T15:50:25.785Z,6.75
2018-10-09T15:52:53.910Z,7.37
2018-10-09T15:55:21.990Z,6.23
2018-10-09T15:57:50.074Z,10.97
2018-10-09T16:00:18.158Z,8.77
2018-10-09T16:02:46.302Z,10.65
2018-10-09T16:05:14.390Z,9.70
2018-10-09T16:07:42.551Z,7.00
2018-10-09T16:10:10.671Z,11.50
2018-10-09T16:12:38.936Z,10.07
2018-10-09T16:15:07.019Z,13.13
2018-10-09T16:17:35.115Z,10.13
2018-10-09T16:20:04.935Z,10.37
2018-10-09T16:22:33.031Z,9.03
2018-10-09T16:25:01.106Z,8.73
2018-10-09T16:27:29.195Z,8.90
2018-10-09T16:29:57.278Z,9.80
2018-10-09T16:32:25.468Z,9.83
2018-10-09T16:34:53.439Z,9.87
2018-10-09T16:37:21.502Z,5.57
2018-10-09T16:39:49.578Z,8.30
2018-10-09T16:42:17.663Z,7.43
2018-10-09T16:44:45.727Z,9.67
2018-10-09T16:47:13.936Z,7.90
2018-10-09T16:49:41.931Z,9.20
2018-10-09T16:52:10.021Z,14.60
2018-10-09T16:54:38.115Z,10.50
2018-10-09T16:57:06.219Z,16.23
2018-10-09T16:59:34.302Z,8.93
2018-10-09T17:02:02.390Z,7.97
2018-10-09T17:04:30.487Z,12.30
2018-10-09T17:06:58.627Z,8.87
2018-10-09T17:09:26.711Z,14.87
2018-10-09T17:11:54.795Z,22.63
2018-10-09T17:14:22.882Z,14.60
2018-10-09T17:16:50.978Z,14.30
2018-10-09T17:19:19.086Z,17.82
2018-10-09T17:21:47.191Z,13.57
2018-10-09T17:24:15.300Z,12.60
2018-10-09T17:26:43.530Z,10.47
2018-10-09T17:29:11.570Z,8.43
2018-10-09T17:31:39.696Z,9.67
2018-10-09T17:34:07.770Z,9.03
2018-10-09T17:36:35.889Z,8.70
2018-10-09T17:39:05.807Z,8.60
2018-10-09T17:41:33.999Z,13.40
2018-10-09T17:44:02.111Z,10.17
2018-10-09T17:46:30.334Z,9.20
2018-10-09T17:48:58.339Z,9.93
2018-10-09T17:51:26.430Z,13.40
2018-10-09T17:53:54.550Z,11.43
2018-10-09T17:56:22.766Z,11.17
2018-10-09T17:58:50.845Z,10.97
2018-10-09T18:01:18.940Z,15.60
2018-10-09T18:03:47.007Z,17.70
2018-10-09T18:06:15.142Z,10.30
2018-10-09T18:08:43.416Z,12.30
2018-10-09T18:11:11.515Z,18.37
2018-10-09T18:13:39.703Z,17.10
2018-10-09T18:16:08.255Z,15.17
2018-10-09T18:18:36.314Z,21.60
2018-10-09T18:21:04.469Z,17.00
2018-10-09T18:23:32.591Z,16.33
2018-10-09T18:26:01.329Z,14.10
2018-10-09T18:28:29.622Z,12.20
2018-10-09T18:30:57.716Z,14.67
2018-10-09T18:33:25.811Z,12.57
2018-10-09T18:35:53.871Z,7.97
2018-10-09T18:38:21.975Z,15.53
2018-10-09T18:40:50.182Z,12.77
2018-10-09T18:43:18.288Z,13.47
2018-10-09T18:45:46.435Z,10.20
2018-10-09T18:48:14.506Z,12.80
2018-10-09T18:50:42.587Z,14.13
2018-10-09T18:53:10.697Z,13.37
2018-10-09T18:55:38.842Z,15.07
2018-10-09T18:58:07.042Z,17.00
2018-10-09T19:00:35.105Z,17.67
2018-10-09T19:03:03.171Z,17.93
2018-10-09T19:05:31.242Z,19.57
2018-10-09T19:07:59.326Z,13.37
2018-10-09T19:10:27.671Z,18.50
2018-10-09T19:12:56.107Z,20.33
2018-10-09T19:15:24.399Z,19.10
2018-10-09T19:17:52.539Z,15.20
2018-10-09T19:20:20.799Z,18.73
2018-10-09T19:22:48.915Z,13.03
2018-10-09T19:25:17.015Z,18.23
2018-10-09T19:27:45.190Z,19.27
2018-10-09T19:30:13.251Z,15.13
2018-10-09T19:32:41.418Z,12.73
2018-10-09T19:35:09.449Z,18.93
2018-10-09T19:37:37.539Z,19.20
2018-10-09T19:40:05.703Z,18.33
2018-10-09T19:42:33.839Z,12.57
2018-10-09T19:45:02.269Z,17.80
2018-10-09T19:47:35.444Z,15.70
2018-10-09T19:50:04.583Z,13.00
2018-10-09T19:52:32.687Z,12.47
2018-10-09T19:55:00.868Z,10.33
2018-10-09T19:57:28.982Z,11.50
2018-10-09T19:59:57.155Z,7.47
2018-10-09T20:02:25.287Z,6.53
2018-10-09T20:04:54.358Z,8.30
2018-10-09T20:07:22.440Z,9.63
2018-10-09T20:09:50.498Z,5.90
2018-10-09T20:12:18.603Z,5.97
2018-10-09T20:14:46.672Z,5.07
2018-10-09T20:17:14.748Z,4.87
2018-10-09T20:19:42.819Z,8.20
2018-10-09T20:22:11.569Z,7.50
2018-10-09T20:24:39.890Z,8.60
2018-10-09T20:27:07.962Z,6.97
2018-10-09T20:29:36.049Z,12.07
2018-10-09T20:32:04.117Z,5.13
2018-10-09T20:34:32.232Z,7.73
2018-10-09T20:37:00.477Z,6.17
2018-10-09T20:39:28.660Z,5.87
2018-10-09T20:41:56.802Z,5.43
2018-10-09T20:44:24.829Z,5.23
2018-10-09T20:46:52.898Z,5.13
2018-10-09T20:49:22.195Z,13.30
2018-10-09T20:51:50.287Z,12.23
2018-10-09T20:54:18.413Z,11.53
2018-10-09T20:56:46.482Z,11.07
2018-10-09T20:59:14.576Z,7.73
2018-10-09T21:01:42.653Z,7.17
2018-10-09T21:04:10.746Z,6.47
2018-10-09T21:06:38.883Z,8.30
2018-10-09T21:09:07.020Z,7.83
2018-10-09T21:11:35.278Z,4.00
2018-10-09T21:14:03.356Z,4.30
2018-10-09T21:16:31.840Z,8.10
2018-10-09T21:19:00.146Z,7.70
2018-10-09T21:21:28.645Z,3.37
2018-10-09T21:23:57.147Z,4.60
2018-10-09T21:26:25.533Z,5.27
2018-10-09T21:28:53.945Z,5.80
2018-10-09T21:31:22.439Z,5.90
2018-10-09T21:33:50.632Z,4.93
2018-10-09T21:36:18.927Z,5.00
2018-10-09T21:38:47.239Z,5.47
2018-10-09T21:41:15.676Z,4.03
2018-10-09T21:43:43.850Z,4.70
2018-10-09T21:46:11.915Z,4.83
2018-10-09T21:48:40.088Z,6.83
2018-10-09T21:51:08.060Z,6.83
2018-10-09T21:53:36.164Z,7.90
2018-10-09T21:56:04.239Z,6.43
2018-10-09T21:58:32.461Z,7.50
2018-10-09T22:01:06.137Z,7.17
2018-10-09T22:03:34.268Z,4.73
2018-10-09T22:06:02.334Z,6.30
2018-10-09T22:08:39.559Z,5.77
2018-10-09T22:11:07.646Z,6.87
2018-10-09T22:13:35.778Z,7.70
2018-10-09T22:16:03.863Z,6.20
2018-10-09T22:18:31.934Z,5.30
2018-10-09T22:21:00.010Z,9.17
2018-10-09T22:23:28.079Z,6.20
2018-10-09T22:25:56.159Z,4.00
2018-10-09T22:28:24.249Z,3.53
2018-10-09T22:30:52.331Z,2.77
2018-10-09T22:33:20.426Z,3.47
2018-10-09T22:35:48.498Z,4.43
2018-10-09T22:38:16.587Z,3.53
2018-10-09T22:40:45.086Z,3.97
2018-10-09T22:43:13.181Z,4.10
2018-10-09T22:45:41.273Z,6.27
2018-10-09T22:48:09.370Z,3.20
2018-10-09T22:50:37.502Z,3.57
2018-10-09T22:53:05.599Z,3.80
2018-10-09T22:55:33.675Z,5.80
2018-10-09T22:58:01.767Z,4.40
2018-10-09T23:00:29.840Z,5.17
2018-10-09T23:02:57.900Z,7.70
2018-10-09T23:05:25.998Z,6.17
2018-10-09T23:07:54.143Z,4.70
2018-10-09T23:10:22.214Z,4.20
2018-10-09T23:12:50.395Z,4.83
2018-10-09T23:15:18.479Z,4.83
2018-10-09T23:17:46.554Z,5.43
2018-10-09T23:20:14.674Z,6.50
2018-10-09T23:22:42.745Z,7.60
2018-10-09T23:25:10.926Z,5.10
2018-10-09T23:27:39.118Z,3.87
2018-10-09T23:30:07.350Z,5.47
2018-10-09T23:32:35.446Z,6.60
2018-10-09T23:35:03.503Z,5.33
2018-10-09T23:37:31.598Z,5.50
2018-10-09T23:39:59.469Z,6.40
2018-10-09T23:42:27.523Z,7.03
2018-10-09T23:44:55.622Z,5.17
2018-10-09T23:47:23.704Z,6.35
2018-10-09T23:49:51.763Z,5.43
2018-10-09T23:52:19.915Z,4.60
2018-10-09T23:54:48.033Z,4.23
2018-10-09T23:57:16.098Z,5.90
2018-10-09T23:59:44.159Z,6.37
